04W

Field of Dreams Airport

Hinckley, Minnesota, USA
METAR K04W 130559Z AUTO 00000KT 10SM OVC031 M11/M16 A3046 RMK AO2
Observed Flight Rules
Nov-13 @ 05:59 UTC (an hour ago) Visual Flight Rules
Visibility Clouds
10 miles
  • Overcast at 3,100' AGL
Temperatures Readings
Current -11°C / 12°F
Dewpoint -16°C / 3°F
Humidity 67%
Altimeter 30.46" Hg
Pressure 1031 hPa
Elevation 311
METAR K04W 130559Z AUTO 00000KT 10SM OVC031 M11/M16 A3046 RMK AO2
Observed Flight Rules
Nov-13 @ 05:59 UTC
(an hour ago)
VFR
Clouds
  • Overcast at 3,100' AGL
Temperature Dewpoint
-11°C / 12°F -16°C / 3°F
Humidity Altimeter Pressure
67% 30.46" Hg 1031 hPa